Ellis Prairie, Missouri
Current Conditions -  °F | °C
As of 11:48 AM on Friday 24 Oct 2014 (Local Time) from KTBN Reporting Station
Overcast Overcast  
Wind Chill: 66°   Ceiling: 3600
Heat Index: 66°   Visibility: 10mi
Dew Point: 57°   Wind: 2mph
Humidity: 73%   Direction: NA
Pressure: 30.13"   Gusts: NA
Location:  37.3991°N, 92.0382°W
Report Text: KTBN 241648Z AUTO VRB02KT 10SM FEW017 SCT023 BKN036 OVC043 19/14 A3013 RMK AO2
Loading
Personal Weather Stations






























Interactive Weather Map
Tropical Storm Tracking
New forecast layout! Learn more

10-Day Weather Forecast

Advertisements
Track Severe Weather on mobile